Sawyer, ND (58781)

8:20 PM CDT on April 26, 2015 (GMT -0500)
Dakota Park South Minot | | Change Station
CLOSE
Current Station
Personal Weather Station
Location: Minot, ND
Elevation: 1750 ft
Nearby Weather Stations

Elev 1750 ft 48.20 °N, 101.31 °W | Updated 19 seconds ago

Overcast
Overcast
47.3 °F
Feels Like 47 °F
N
0.0
Wind Variable Wind from SW
Gusts 0.7 mph

Today
High -- | Low -- °F
--% Chance of Precip.
Yesterday
High -- | Low -- °F
Precip. -- in
6:34 AM 8:50 PM
First Quarter, 60% visible
Pressure 30.16 in
Visibility 7.0 miles
Clouds Overcast 7500 ft
Windchill 47 °F
Dew Point 47 °F
Humidity 100%
Rainfall 0.11 in
Snow Depth Not available.
UV 0.0 out of 12
Pollen 7.10 out of 12
Air Quality Not available.
Flu Activity Regional
METAR KMOT 270054Z 21003KT 7SM -RA OVC075 09/07 A3013 RMK AO2 SLP213 P0002 T00940072

More Conditions Fewer Conditions

Pressure 30.16 in
Visibility 7.0 miles
Clouds Overcast 7500 ft
Windchill 47 °F
Dew Point 47 °F
Humidity 100%
Rainfall 0.11 in
Snow Depth Not available.
UV 0.0 out of 12
Pollen 7.10 out of 12
Air Quality Not available.
Flu Activity Regional
METAR KMOT 270054Z 21003KT 7SM -RA OVC075 09/07 A3013 RMK AO2 SLP213 P0002 T00940072

More Conditions Fewer Conditions

The full scope of the disaster following a powerful 7.8-magnitude earthquake in Nepal may not come into view for days, but global charities are already sending emergency aid. Click to see how you can help.

10-Day Weather Forecast

Almanac

Astronomy

Apr. 26, 2015 Rise Set
Actual Time
Civil Twilight
Nautical Twilight
Astronomical Twilight
Moon
Length of Visible Light
Length of Day
Tomorrow will be .
, % of the Moon is Illuminated

Today's Extremes

State Highs State Lows

Community

WunderPhotos

Upload Photos

1,817,193 photos uploaded!

WunderBlogs® & News

Nearby

Air Quality

  Air Quality AQ Index Pollutant
Not available.

Snow Depth

Station Depth Elevation

Earthquake Activity

City Distance Mag. Time & Date
Minimum magnitude displayed is 2.5.

Coastal Water Temperatures

Place Temperature

Stations

Nearby Weather Stations

Station Location Temp. Windchill Dew Point Humidity Wind Precip. Elev Updated Type